»·PEaware :: SWA346 KSLC-KSAN

SWA346 :: KSLC-KSAN

FLIGHT INFORMATION

Flight Status: Arrived
Operator:
Southwest Airlines
More flights by this operator :: More flights under this callsign
Pilot: Vincent F. (22894)
Aircraft: BOEING 737-700
(B737)
More flights by this aircraft type
Origin: KSLC Salt Lake City Intl
United States
Destination: KSAN San Diego Intl-Lindbergh
United States
More flights between these airports :: More routes between these airports
Route: ZIONZ1 EHK LAKRR Q73 LVELL LUCKI1
File this flight plan on PilotEdge
Remarks: RMK / SIMBRIEF
Altitude:
(Current/Filed)
38,000ft
Speed:
(Current/Filed)
444kts
Departed: 09-Jan-20 09:07 AM
Arrived: 09-Jan-20 10:39 AM
Distance/Time
Traveled:
544nm/1:31
Distance/Time
To Go:
Arrived

Flight Plot

Page will automatically refresh every two minutes.

Flight plan parsing failed; only flown route is shown


Map Options




Map Legend


Flown Route
Filed Route
Departure Airport
Arrival Airport
Navaid (VOR, NDB)
Fix

Horizontal Profiles

Position Reports

Time Latitude Longitude Heading Altitude Ground
Speed
09-Jan-20 08:43 40.787576 -111.983818 253 4234ft 0kts
09-Jan-20 08:44 40.787576 -111.983818 253 4234ft 0kts
09-Jan-20 08:45 40.787576 -111.983818 253 4234ft 0kts
09-Jan-20 08:46 40.787576 -111.983818 253 4234ft 0kts
09-Jan-20 08:47 40.787576 -111.983818 253 4235ft 0kts
09-Jan-20 08:48 40.787576 -111.983818 253 4235ft 0kts
09-Jan-20 08:49 40.787576 -111.983818 253 4235ft 0kts
09-Jan-20 08:50 40.787576 -111.983818 253 4235ft 0kts
09-Jan-20 08:51 40.787576 -111.983818 253 4235ft 0kts
09-Jan-20 08:52 40.787576 -111.983818 253 4235ft 0kts
09-Jan-20 08:53 40.787576 -111.983818 253 4235ft 0kts
09-Jan-20 08:54 40.787576 -111.983818 253 4235ft 0kts
09-Jan-20 08:55 40.787599 -111.983717 253 4235ft 2kts
09-Jan-20 08:56 40.788670 -111.983363 338 4235ft 15kts
09-Jan-20 08:57 40.789035 -111.983550 338 4235ft 0kts
09-Jan-20 08:58 40.789035 -111.983550 338 4235ft 0kts
09-Jan-20 08:59 40.789823 -111.982246 87 4235ft 27kts
09-Jan-20 08:59 40.790571 -111.977089 354 4235ft 8kts
09-Jan-20 09:01 40.799288 -111.978111 352 4235ft 27kts
09-Jan-20 09:02 40.806695 -111.978980 357 4235ft 22kts
09-Jan-20 09:02 40.807403 -111.978482 85 4235ft 0kts
09-Jan-20 09:04 40.807403 -111.978482 85 4235ft 0kts
09-Jan-20 09:05 40.807403 -111.978482 85 4235ft 0kts
09-Jan-20 09:05 40.806653 -111.976749 175 4235ft 9kts
09-Jan-20 09:07 40.772386 -111.973769 177 5366ft 185kts
09-Jan-20 09:07 40.725790 -111.969314 175 7752ft 212kts
09-Jan-20 09:08 40.657709 -111.962770 179 9882ft 277kts
09-Jan-20 09:10 40.558070 -111.957275 179 11811ft 342kts
09-Jan-20 09:10 40.476774 -111.952843 181 14961ft 358kts
09-Jan-20 09:11 40.374572 -111.946015 181 18447ft 377kts
09-Jan-20 09:13 40.249094 -111.941497 191 21988ft 391kts
09-Jan-20 09:13 40.158067 -111.956069 194 24217ft 401kts
09-Jan-20 09:14 40.046345 -111.972774 193 26791ft 407kts
09-Jan-20 09:15 39.933031 -111.989301 193 28925ft 411kts
09-Jan-20 09:16 39.818459 -112.005978 193 30592ft 419kts
09-Jan-20 09:17 39.701475 -112.023071 193 32037ft 426kts
09-Jan-20 09:18 39.582278 -112.040334 192 33395ft 432kts
09-Jan-20 09:19 39.462073 -112.057660 191 34600ft 438kts
09-Jan-20 09:20 39.340195 -112.075014 191 35794ft 442kts
09-Jan-20 09:21 39.217154 -112.092422 191 36859ft 446kts
09-Jan-20 09:22 39.098982 -112.131325 211 37818ft 436kts
09-Jan-20 09:23 38.992754 -112.207154 213 37937ft 434kts
09-Jan-20 09:24 38.887364 -112.283427 213 37936ft 434kts
09-Jan-20 09:25 38.782323 -112.359541 214 37933ft 434kts
09-Jan-20 09:26 38.677142 -112.435593 214 37930ft 433kts
09-Jan-20 09:27 38.572153 -112.511139 214 37927ft 433kts
09-Jan-20 09:28 38.467181 -112.586394 214 37925ft 432kts
09-Jan-20 09:29 38.362246 -112.661360 214 37921ft 433kts
09-Jan-20 09:30 38.256639 -112.736554 214 37920ft 433kts
09-Jan-20 09:31 38.151456 -112.811197 213 37919ft 434kts
09-Jan-20 09:32 38.045965 -112.885934 213 37918ft 434kts
09-Jan-20 09:33 37.940559 -112.960304 214 37915ft 431kts
09-Jan-20 09:34 37.835344 -113.034122 214 37912ft 433kts
09-Jan-20 09:35 37.730363 -113.109302 215 37910ft 432kts
09-Jan-20 09:36 37.626482 -113.185257 215 37912ft 433kts
09-Jan-20 09:37 37.522369 -113.261051 215 37924ft 433kts
09-Jan-20 09:38 37.418007 -113.337128 215 37942ft 433kts
09-Jan-20 09:39 37.313422 -113.413077 215 37962ft 433kts
09-Jan-20 09:40 37.208928 -113.488624 215 37975ft 433kts
09-Jan-20 09:41 37.104603 -113.563787 215 37979ft 432kts
09-Jan-20 09:42 37.000355 -113.638644 215 37979ft 432kts
09-Jan-20 09:43 36.896325 -113.713105 215 37979ft 431kts
09-Jan-20 09:44 36.792089 -113.787479 215 37978ft 431kts
09-Jan-20 09:45 36.687921 -113.861572 215 37975ft 431kts
09-Jan-20 09:46 36.583977 -113.935275 215 37976ft 431kts
09-Jan-20 09:47 36.479840 -114.008887 215 37964ft 430kts
09-Jan-20 09:48 36.375162 -114.082656 215 37961ft 431kts
09-Jan-20 09:49 36.270610 -114.156298 215 37959ft 431kts
09-Jan-20 09:50 36.166219 -114.229315 215 37959ft 431kts
09-Jan-20 09:51 36.068348 -114.311744 230 37959ft 420kts
09-Jan-20 09:52 35.989867 -114.417904 233 37959ft 417kts
09-Jan-20 09:53 35.912796 -114.524101 233 37962ft 414kts
09-Jan-20 09:54 35.836256 -114.630147 234 37963ft 413kts
09-Jan-20 09:55 35.759463 -114.735763 234 37962ft 414kts
09-Jan-20 09:56 35.682620 -114.840882 234 37963ft 413kts
09-Jan-20 09:57 35.606034 -114.946016 234 37967ft 413kts
09-Jan-20 09:58 35.528559 -115.050467 229 37963ft 417kts
09-Jan-20 09:59 35.421312 -115.115447 207 37970ft 440kts
09-Jan-20 10:00 35.305581 -115.164204 207 37975ft 439kts
09-Jan-20 10:01 35.189798 -115.212459 207 37982ft 439kts
09-Jan-20 10:02 35.074394 -115.260542 207 37982ft 438kts
09-Jan-20 10:03 34.959167 -115.308284 207 37984ft 437kts
09-Jan-20 10:04 34.843968 -115.355833 208 37988ft 436kts
09-Jan-20 10:05 34.729007 -115.403133 208 37992ft 435kts
09-Jan-20 10:06 34.614346 -115.450170 208 37999ft 434kts
09-Jan-20 10:07 34.500106 -115.496950 209 38010ft 433kts
09-Jan-20 10:08 34.384276 -115.544239 208 38010ft 441kts
09-Jan-20 10:09 34.268366 -115.591321 208 38012ft 440kts
09-Jan-20 10:10 34.153253 -115.641107 212 38006ft 436kts
09-Jan-20 10:11 34.040254 -115.695130 211 38002ft 437kts
09-Jan-20 10:12 33.927258 -115.748330 211 37244ft 433kts
09-Jan-20 10:13 33.816062 -115.802756 212 34145ft 430kts
09-Jan-20 10:14 33.704946 -115.855870 210 30739ft 430kts
09-Jan-20 10:15 33.595488 -115.906968 210 27974ft 411kts
09-Jan-20 10:16 33.503306 -115.972861 236 25531ft 365kts
09-Jan-20 10:17 33.442219 -116.070715 241 23705ft 366kts
09-Jan-20 10:18 33.384439 -116.169560 241 21929ft 358kts
09-Jan-20 10:19 33.318220 -116.258137 220 20084ft 370kts
09-Jan-20 10:20 33.228025 -116.314268 214 18326ft 363kts
09-Jan-20 10:21 33.136855 -116.367605 213 16566ft 361kts
09-Jan-20 10:22 33.050602 -116.417908 214 14884ft 327kts
09-Jan-20 10:23 32.976051 -116.472844 228 13338ft 312kts
09-Jan-20 10:24 32.911282 -116.539284 228 11812ft 297kts
09-Jan-20 10:25 32.850292 -116.600777 226 10365ft 277kts
09-Jan-20 10:26 32.793889 -116.657543 224 9022ft 262kts
09-Jan-20 10:27 32.751501 -116.724250 244 7731ft 250kts
09-Jan-20 10:28 32.718971 -116.793835 242 6636ft 229kts
09-Jan-20 10:29 32.696183 -116.853609 252 6235ft 167kts
09-Jan-20 10:30 32.682127 -116.900131 253 5253ft 135kts
09-Jan-20 10:31 32.672999 -116.939465 274 4133ft 115kts
09-Jan-20 10:32 32.681907 -116.977067 284 3645ft 121kts
09-Jan-20 10:33 32.691365 -117.015741 284 3064ft 117kts
09-Jan-20 10:34 32.700429 -117.053073 284 2493ft 119kts
09-Jan-20 10:35 32.709637 -117.091018 284 1885ft 118kts
09-Jan-20 10:36 32.718924 -117.129308 284 1144ft 127kts
09-Jan-20 10:37 32.728398 -117.168379 283 343ft 119kts
09-Jan-20 10:38 32.736811 -117.203370 279 23ft 21kts
09-Jan-20 10:39 32.736189 -117.204266 175 23ft 0kts
09-Jan-20 10:40 32.734291 -117.202525 126 23ft 0kts

Navigation Log

Ident Type
Flight plan parsing failed, navigation log unavailable